Time;durP1;ratioP1;P1;durP2;ratioP2;P2;SDS_P1;SDS_P2;PMS_P1;PMS_P2;Temp;Humidity;BMP_temperature;BMP_pressure;BME280_temperature;BME280_humidity;BME280_pressure;Samples;Min_cycle;Max_cycle;Signal;HPM_P1;HPM_P2
2023/01/31 00:04:48;;;;;;;26.60;3.00;;;4.00;99.90;;;;;;15135750;23;20108;-36
2023/01/31 00:10:49;;;;;;;19.30;3.10;;;3.90;99.90;;;;;;15134767;23;20088;-36
2023/01/31 00:16:51;;;;;;;16.05;2.30;;;3.90;99.90;;;;;;15139967;23;20052;-36
2023/01/31 00:22:53;;;;;;;19.58;3.42;;;3.90;99.90;;;;;;15138970;23;20108;-36
2023/01/31 00:28:56;;;;;;;25.15;3.05;;;3.90;99.90;;;;;;15130184;23;20021;-36
2023/01/31 00:34:58;;;;;;;20.95;2.50;;;4.00;99.90;;;;;;15136006;23;20029;-36
2023/01/31 00:41:02;;;;;;;26.98;2.80;;;4.10;99.90;;;;;;15183723;23;20104;-36
2023/01/31 00:47:04;;;;;;;20.48;3.30;;;4.10;99.90;;;;;;15192608;23;20025;-36
2023/01/31 00:53:06;;;;;;;18.17;2.45;;;4.10;99.90;;;;;;15193974;23;20021;-36
2023/01/31 00:59:08;;;;;;;15.68;2.33;;;4.20;99.90;;;;;;15196532;23;20105;-36
2023/01/31 01:05:10;;;;;;;18.60;1.67;;;4.10;99.90;;;;;;15194476;23;20113;-36
2023/01/31 01:11:18;;;;;;;25.20;2.70;;;4.20;99.90;;;;;;15200004;23;20118;-36
2023/01/31 01:17:20;;;;;;;20.35;3.35;;;4.20;99.90;;;;;;15193361;23;20455;-36
2023/01/31 01:23:22;;;;;;;17.60;2.60;;;4.20;99.90;;;;;;15199410;23;20421;-36
2023/01/31 01:29:24;;;;;;;14.77;2.50;;;4.20;99.90;;;;;;15194671;23;20120;-37
2023/01/31 01:35:25;;;;;;;15.55;2.67;;;4.30;99.90;;;;;;15195406;23;20104;-36
2023/01/31 01:41:28;;;;;;;23.13;3.15;;;4.20;99.90;;;;;;15152057;23;20033;-37
2023/01/31 01:47:45;;;;;;;20.23;2.30;;;4.20;99.90;;;;;;15121749;23;20053;-36
2023/01/31 01:53:51;;;;;;;20.63;2.78;;;4.30;99.90;;;;;;15127522;23;20018;-37
2023/01/31 02:00:08;;;;;;;25.20;3.75;;;4.10;99.90;;;;;;15128301;23;20109;-36
2023/01/31 02:06:10;;;;;;;19.85;2.28;;;4.20;99.90;;;;;;15120343;23;20022;-36
2023/01/31 02:12:13;;;;;;;25.80;3.33;;;4.10;99.90;;;;;;15132680;23;20053;-36
2023/01/31 02:18:16;;;;;;;17.88;2.80;;;4.00;99.90;;;;;;15129227;23;20029;-37
2023/01/31 02:24:43;;;;;;;23.42;3.08;;;3.90;99.90;;;;;;15129179;23;20617;-36
2023/01/31 02:31:04;;;;;;;21.27;2.53;;;4.00;99.90;;;;;;15132299;23;20026;-37
2023/01/31 02:37:20;;;;;;;20.95;3.20;;;3.90;99.90;;;;;;15132537;23;20026;-36
2023/01/31 02:44:57;;;;;;;20.60;3.03;;;3.90;99.90;;;;;;15202992;23;20025;-37
2023/01/31 02:50:23;;;;;;;17.67;2.58;;;3.90;99.90;;;;;;15197351;23;20070;-36
2023/01/31 02:56:32;;;;;;;;;;;3.70;99.90;;;;;;15198335;23;20108;-36
2023/01/31 03:02:34;;;;;;;16.70;2.30;;;3.70;99.90;;;;;;15200207;23;19968;-37
2023/01/31 03:08:38;;;;;;;15.93;2.92;;;3.70;99.90;;;;;;15201467;23;20486;-36
2023/01/31 03:14:55;;;;;;;25.13;2.95;;;3.60;99.90;;;;;;15198785;23;20029;-36
2023/01/31 03:21:10;;;;;;;18.58;2.53;;;3.40;99.90;;;;;;15202708;23;20022;-36
2023/01/31 03:27:14;;;;;;;25.10;3.20;;;3.20;99.90;;;;;;15193778;23;20026;-36
2023/01/31 03:33:24;;;;;;;20.23;2.92;;;3.10;99.90;;;;;;15200461;23;20018;-35
2023/01/31 03:39:43;;;;;;;16.00;2.65;;;3.10;99.90;;;;;;15171754;23;20492;-36
2023/01/31 03:46:05;;;;;;;25.10;3.47;;;3.10;99.90;;;;;;15132797;23;20034;-36
2023/01/31 03:52:08;;;;;;;21.70;2.67;;;3.00;99.90;;;;;;15149273;23;20026;-36
2023/01/31 03:58:13;;;;;;;11.98;2.25;;;2.90;99.90;;;;;;15143195;23;20061;-36
2023/01/31 04:04:37;;;;;;;25.45;2.92;;;2.90;99.90;;;;;;15142048;23;20032;-36
2023/01/31 04:10:39;;;;;;;15.02;3.03;;;2.90;99.90;;;;;;15144824;23;20025;-36
2023/01/31 04:16:42;;;;;;;23.40;4.32;;;2.80;99.90;;;;;;15137018;23;20057;-36
2023/01/31 04:22:44;;;;;;;21.58;3.58;;;2.80;99.90;;;;;;15144717;23;20034;-36
2023/01/31 04:28:46;;;;;;;16.77;2.90;;;2.80;99.90;;;;;;15129747;23;20660;-36
2023/01/31 04:34:47;;;;;;;16.92;3.00;;;2.90;99.90;;;;;;15146212;23;20488;-36
2023/01/31 04:40:49;;;;;;;18.98;3.30;;;2.90;99.90;;;;;;15161619;23;20092;-36
2023/01/31 04:46:51;;;;;;;24.63;5.45;;;2.90;99.90;;;;;;15202283;23;20344;-36
2023/01/31 04:52:54;;;;;;;22.92;4.68;;;2.90;99.90;;;;;;15199352;23;20246;-36
2023/01/31 04:58:57;;;;;;;18.90;2.80;;;2.90;99.90;;;;;;15200218;23;20026;-36
2023/01/31 05:04:59;;;;;;;25.98;3.50;;;2.90;99.90;;;;;;15198887;23;20876;-36
2023/01/31 05:11:02;;;;;;;28.95;3.92;;;2.90;99.90;;;;;;15199143;23;20022;-36
2023/01/31 05:17:05;;;;;;;18.02;3.38;;;2.90;99.90;;;;;;15199538;23;20443;-36
2023/01/31 05:23:08;;;;;;;25.52;3.80;;;2.90;99.90;;;;;;15170482;23;20022;-36
2023/01/31 05:29:09;;;;;;;19.38;3.28;;;3.00;99.90;;;;;;15198690;23;20018;-36
2023/01/31 05:35:12;;;;;;;21.38;3.25;;;3.00;99.90;;;;;;15199905;23;20026;-36
2023/01/31 05:41:13;;;;;;;27.85;3.83;;;3.00;99.90;;;;;;15164855;23;20101;-35
2023/01/31 05:47:15;;;;;;;15.98;3.33;;;3.10;99.90;;;;;;15157400;23;20025;-36
2023/01/31 05:53:17;;;;;;;17.55;3.30;;;3.20;99.90;;;;;;15118660;23;20021;-36
2023/01/31 05:59:20;;;;;;;18.80;3.13;;;3.20;99.90;;;;;;15118217;23;20018;-36
2023/01/31 06:05:22;;;;;;;18.85;3.30;;;3.20;99.90;;;;;;15075061;23;20130;-36
2023/01/31 06:11:24;;;;;;;17.95;2.95;;;3.20;99.90;;;;;;15076558;23;20388;-36
2023/01/31 06:17:26;;;;;;;19.58;3.65;;;3.40;99.90;;;;;;15078171;23;20467;-36
2023/01/31 06:23:33;;;;;;;25.60;6.82;;;3.50;99.90;;;;;;15073104;23;20058;-36
2023/01/31 06:29:35;;;;;;;20.63;3.95;;;3.50;99.90;;;;;;15082852;23;20469;-36
2023/01/31 06:35:38;;;;;;;22.42;4.75;;;3.50;99.90;;;;;;15069911;23;20364;-37
2023/01/31 06:41:40;;;;;;;21.50;4.22;;;3.50;99.90;;;;;;15125689;23;20030;-36
2023/01/31 06:47:44;;;;;;;26.75;4.82;;;3.60;99.90;;;;;;15132074;23;20094;-36
2023/01/31 06:53:46;;;;;;;22.53;5.23;;;3.70;99.90;;;;;;15128397;23;20022;-37
2023/01/31 06:59:48;;;;;;;18.33;4.38;;;3.70;99.90;;;;;;15129071;23;20023;-37
2023/01/31 07:05:50;;;;;;;19.27;5.28;;;3.80;99.90;;;;;;15185397;23;20029;-36
2023/01/31 07:11:52;;;;;;;17.98;4.78;;;3.90;99.90;;;;;;15202501;23;20463;-37
2023/01/31 07:17:58;;;;;;;17.75;5.45;;;3.90;99.90;;;;;;15174122;23;20480;-36
2023/01/31 07:24:00;;;;;;;24.00;5.60;;;4.10;99.90;;;;;;15202767;23;20077;-36
2023/01/31 07:30:03;;;;;;;18.13;5.80;;;4.20;99.90;;;;;;15198537;23;20025;-36
2023/01/31 07:36:07;;;;;;;19.52;5.90;;;4.20;99.90;;;;;;15204906;23;20021;-36
2023/01/31 07:42:09;;;;;;;21.60;6.05;;;4.30;99.90;;;;;;15166094;23;20263;-36
2023/01/31 07:48:11;;;;;;;27.48;6.93;;;4.30;99.90;;;;;;15158314;23;20028;-36
2023/01/31 07:54:13;;;;;;;23.83;6.35;;;4.30;99.90;;;;;;15143114;23;20029;-36
2023/01/31 08:06:36;;;;;;;19.55;7.20;;;4.20;99.90;;;;;;15143239;23;20026;-36
2023/01/31 08:12:38;;;;;;;26.00;7.15;;;4.30;99.90;;;;;;15150601;23;20029;-35
2023/01/31 08:18:40;;;;;;;24.83;8.32;;;4.20;99.90;;;;;;15147710;23;20036;-36
2023/01/31 08:24:43;;;;;;;20.98;8.48;;;4.20;99.90;;;;;;15151754;23;20033;-36
2023/01/31 08:30:45;;;;;;;24.25;8.93;;;4.40;99.90;;;;;;15148857;23;20026;-36
2023/01/31 08:37:03;;;;;;;27.52;8.75;;;4.30;99.90;;;;;;15152926;23;20089;-36
2023/01/31 08:43:05;;;;;;;27.50;9.35;;;4.40;99.90;;;;;;15203839;23;20456;-36
2023/01/31 08:49:08;;;;;;;34.60;8.50;;;4.50;99.90;;;;;;15201944;23;20021;-36
2023/01/31 08:55:12;;;;;;;25.08;8.55;;;4.50;99.90;;;;;;15194952;23;20569;-36
2023/01/31 09:01:17;;;;;;;26.47;8.97;;;4.50;99.90;;;;;;15202869;23;20026;-37
2023/01/31 09:07:20;;;;;;;27.98;7.90;;;4.50;99.90;;;;;;15199443;23;20029;-36
2023/01/31 09:13:23;;;;;;;21.23;6.95;;;4.40;99.90;;;;;;15173789;23;20101;-36
2023/01/31 09:19:25;;;;;;;21.95;6.70;;;4.20;99.90;;;;;;15196833;23;20113;-36
2023/01/31 09:25:27;;;;;;;21.50;6.85;;;4.20;99.90;;;;;;15199519;23;20026;-36
2023/01/31 09:31:49;;;;;;;23.48;7.03;;;4.00;99.90;;;;;;15197547;23;20025;-36
2023/01/31 09:37:51;;;;;;;18.83;6.57;;;4.00;99.90;;;;;;15188568;23;20053;-36
2023/01/31 09:44:01;;;;;;;16.30;7.13;;;4.00;99.90;;;;;;15139217;23;20105;-37
2023/01/31 09:50:17;;;;;;;20.52;9.25;;;3.90;99.90;;;;;;15138701;23;20530;-36
2023/01/31 09:56:44;;;;;;;24.80;7.38;;;3.90;99.90;;;;;;15130785;23;20032;-36
2023/01/31 10:02:58;;;;;;;24.55;7.90;;;4.00;99.90;;;;;;15131007;23;20476;-36
2023/01/31 10:09:27;;;;;;;23.98;8.15;;;4.00;99.90;;;;;;15134500;23;20105;-36
2023/01/31 10:15:43;;;;;;;20.13;7.20;;;4.00;99.90;;;;;;15133732;23;20026;-37
2023/01/31 10:21:53;;;;;;;21.83;7.47;;;4.10;99.90;;;;;;15128373;23;20030;-36
2023/01/31 10:28:10;;;;;;;18.25;7.13;;;4.20;99.90;;;;;;15139399;23;20037;-36
2023/01/31 10:34:27;;;;;;;20.50;8.23;;;4.20;99.90;;;;;;15139046;23;20858;-36
2023/01/31 10:40:38;;;;;;;23.05;9.07;;;4.20;99.90;;;;;;15180050;23;20026;-36
2023/01/31 10:46:39;;;;;;;23.15;8.82;;;4.20;99.90;;;;;;15202492;23;20037;-36
2023/01/31 10:53:07;;;;;;;25.85;9.15;;;4.20;99.90;;;;;;15199407;23;20049;-36
2023/01/31 10:59:22;;;;;;;26.55;10.73;;;4.30;99.90;;;;;;15204395;23;20077;-36
2023/01/31 11:05:27;;;;;;;26.67;9.77;;;4.40;99.90;;;;;;15178747;23;20026;-36
2023/01/31 11:11:30;;;;;;;25.52;9.30;;;4.40;99.90;;;;;;15178237;23;20518;-36
2023/01/31 11:17:35;;;;;;;19.90;8.50;;;4.40;99.90;;;;;;15204483;23;20029;-37
2023/01/31 11:23:37;;;;;;;27.60;9.65;;;4.40;99.90;;;;;;15204923;23;20446;-37
2023/01/31 11:29:47;;;;;;;15.82;9.18;;;4.40;99.90;;;;;;15198103;23;20018;-36
2023/01/31 11:35:51;;;;;;;22.00;9.15;;;4.50;99.90;;;;;;15176667;23;20026;-37
2023/01/31 11:41:53;;;;;;;26.17;11.15;;;4.60;99.90;;;;;;15171295;23;20101;-38
2023/01/31 11:47:58;;;;;;;25.30;10.27;;;4.60;99.90;;;;;;15155909;23;20391;-36
2023/01/31 11:54:03;;;;;;;23.27;12.23;;;4.50;99.90;;;;;;15149895;23;20502;-37
2023/01/31 12:00:22;;;;;;;23.58;10.95;;;4.60;99.90;;;;;;15151308;23;20025;-36
2023/01/31 12:06:33;;;;;;;22.75;11.32;;;4.60;99.90;;;;;;15086219;23;20038;-35
2023/01/31 12:12:35;;;;;;;26.55;12.25;;;4.70;99.90;;;;;;15152819;23;20105;-37
2023/01/31 12:18:37;;;;;;;26.33;11.60;;;4.70;99.90;;;;;;15147990;23;20029;-36
2023/01/31 12:25:27;;;;;;;24.58;11.75;;;4.80;99.90;;;;;;15147075;23;20030;-36
2023/01/31 12:31:55;;;;;;;23.90;10.52;;;4.80;99.90;;;;;;15147697;23;20021;-36
2023/01/31 12:38:22;;;;;;;26.80;12.25;;;4.80;99.90;;;;;;15103918;23;20033;-36
2023/01/31 12:44:38;;;;;;;23.00;11.73;;;4.80;99.90;;;;;;15194053;23;20045;-36
2023/01/31 12:51:01;;;;;;;25.05;12.88;;;4.80;99.90;;;;;;15196790;23;20030;-37
2023/01/31 12:57:16;;;;;;;23.08;11.13;;;4.80;99.90;;;;;;15195033;23;20029;-36
2023/01/31 13:03:41;;;;;;;25.52;12.25;;;4.80;99.90;;;;;;15202518;23;20470;-36
2023/01/31 13:09:47;;;;;;;26.73;12.43;;;4.80;99.90;;;;;;15183541;23;20022;-36
2023/01/31 13:15:54;;;;;;;25.92;11.80;;;4.80;99.90;;;;;;15197531;23;20104;-36
2023/01/31 13:22:04;;;;;;;18.08;10.10;;;4.70;99.90;;;;;;15195043;23;20017;-36
2023/01/31 13:28:12;;;;;;;16.98;10.27;;;4.80;99.90;;;;;;15192166;23;20105;-36
2023/01/31 13:34:38;;;;;;;17.40;10.57;;;4.80;99.90;;;;;;15190579;23;20061;-36
2023/01/31 13:40:51;;;;;;;17.85;8.65;;;4.80;99.90;;;;;;15180622;23;20629;-36
2023/01/31 13:47:02;;;;;;;16.10;8.68;;;4.90;99.90;;;;;;15152251;23;20026;-36
2023/01/31 13:53:10;;;;;;;13.48;7.80;;;4.90;99.90;;;;;;15168787;23;20026;-37
2023/01/31 13:59:22;;;;;;;12.43;6.07;;;5.00;99.90;;;;;;15167093;23;20025;-36
2023/01/31 14:05:43;;;;;;;15.73;6.68;;;5.10;99.90;;;;;;15190367;23;20052;-36
2023/01/31 14:11:45;;;;;;;11.23;5.63;;;5.10;99.90;;;;;;15201498;23;20026;-36
2023/01/31 14:17:50;;;;;;;11.45;6.30;;;5.20;99.90;;;;;;15200394;23;20153;-36
2023/01/31 14:23:52;;;;;;;11.80;5.50;;;5.30;99.90;;;;;;15200850;23;20031;-36
2023/01/31 14:30:08;;;;;;;10.95;5.15;;;5.30;99.90;;;;;;15197238;23;20029;-36
2023/01/31 14:36:41;;;;;;;8.82;5.45;;;5.50;99.90;;;;;;15206089;23;20018;-36
2023/01/31 14:43:11;;;;;;;14.75;6.20;;;5.50;99.90;;;;;;15206048;23;20458;-37
2023/01/31 14:49:45;;;;;;;12.48;5.97;;;5.50;99.90;;;;;;15204414;23;20026;-37
2023/01/31 14:56:06;;;;;;;10.13;6.18;;;5.60;99.90;;;;;;15204360;23;20029;-37
2023/01/31 15:02:41;;;;;;;16.52;7.15;;;5.60;99.90;;;;;;15203894;23;20097;-36
2023/01/31 15:08:45;;;;;;;;;;;5.60;99.90;;;;;;15179408;23;20026;-36
2023/01/31 15:14:48;;;;;;;11.07;6.20;;;5.70;99.90;;;;;;15202286;23;19979;-35
2023/01/31 15:20:57;;;;;;;13.00;6.80;;;5.70;99.90;;;;;;15203734;23;20049;-36
2023/01/31 15:27:01;;;;;;;13.38;6.32;;;5.90;99.90;;;;;;15202678;23;20539;-36
2023/01/31 15:33:07;;;;;;;;;;;5.90;99.90;;;;;;15200459;23;20030;-36
2023/01/31 15:39:28;;;;;;;10.25;5.85;;;6.00;99.90;;;;;;15205306;23;20342;-36
2023/01/31 15:45:31;;;;;;;9.45;6.25;;;6.00;99.90;;;;;;15175708;23;20329;-36
2023/01/31 15:51:33;;;;;;;14.23;6.55;;;6.10;99.90;;;;;;15202054;23;20026;-36
2023/01/31 15:57:41;;;;;;;12.85;6.75;;;6.10;99.90;;;;;;15200258;23;20026;-36
2023/01/31 16:03:58;;;;;;;15.57;6.95;;;6.10;99.90;;;;;;15204038;23;20022;-36
2023/01/31 16:10:01;;;;;;;15.50;7.50;;;6.10;99.90;;;;;;15199890;23;20030;-36
2023/01/31 16:16:06;;;;;;;10.52;5.93;;;6.20;99.90;;;;;;15203811;23;20534;-35
2023/01/31 16:22:24;;;;;;;;;;;6.20;99.90;;;;;;15201055;23;20601;-36
2023/01/31 16:28:29;;;;;;;13.23;6.68;;;6.30;99.90;;;;;;15199117;23;19921;-36
2023/01/31 16:34:37;;;;;;;12.95;6.25;;;6.20;99.90;;;;;;15201612;23;20037;-35
2023/01/31 16:40:51;;;;;;;10.77;6.30;;;6.40;99.90;;;;;;15179457;23;20049;-35
2023/01/31 16:46:54;;;;;;;12.18;5.32;;;6.40;99.90;;;;;;15200822;23;20026;-35
2023/01/31 16:53:14;;;;;;;7.80;4.65;;;6.50;99.90;;;;;;15202518;23;20034;-36
2023/01/31 16:59:37;;;;;;;13.93;4.95;;;6.50;99.90;;;;;;15176422;23;20363;-35
2023/01/31 17:05:43;;;;;;;11.63;5.15;;;6.50;99.90;;;;;;15196506;23;20037;-37
2023/01/31 17:11:48;;;;;;;8.82;3.80;;;6.60;99.90;;;;;;15199044;23;20026;-36
2023/01/31 17:17:50;;;;;;;11.82;4.25;;;6.50;99.90;;;;;;15202640;23;20332;-36
2023/01/31 17:23:52;;;;;;;16.02;3.67;;;6.50;99.90;;;;;;15193432;23;20034;-37
2023/01/31 17:29:54;;;;;;;15.73;3.83;;;6.60;99.90;;;;;;15194340;23;20049;-36
2023/01/31 17:35:56;;;;;;;13.45;3.20;;;6.60;99.90;;;;;;15197056;23;20109;-36
2023/01/31 17:41:59;;;;;;;10.88;2.47;;;6.60;99.90;;;;;;15198622;23;20022;-36
2023/01/31 17:48:01;;;;;;;9.18;2.63;;;6.80;99.90;;;;;;15201160;23;20345;-36
2023/01/31 17:54:03;;;;;;;12.98;2.85;;;6.90;99.90;;;;;;15196750;23;20611;-37
2023/01/31 18:00:09;;;;;;;13.93;2.88;;;6.90;99.90;;;;;;15199031;23;20022;-36
2023/01/31 18:06:11;;;;;;;16.48;3.70;;;6.80;99.90;;;;;;15090053;23;20034;-37
2023/01/31 18:12:13;;;;;;;10.43;2.25;;;6.70;99.90;;;;;;15125791;23;20022;-36
2023/01/31 18:18:15;;;;;;;11.13;2.08;;;6.60;99.90;;;;;;15127452;23;20081;-37
2023/01/31 18:24:17;;;;;;;14.35;2.55;;;6.60;99.90;;;;;;15125235;23;20022;-37
2023/01/31 18:30:19;;;;;;;18.00;2.90;;;6.50;99.90;;;;;;15121038;23;20146;-37
2023/01/31 18:36:21;;;;;;;13.50;2.42;;;6.40;99.90;;;;;;15126935;23;20102;-37
2023/01/31 18:42:23;;;;;;;22.42;2.97;;;6.30;99.90;;;;;;15126120;23;20019;-36
2023/01/31 18:48:25;;;;;;;16.83;2.97;;;6.20;99.90;;;;;;15128790;23;20453;-37
2023/01/31 18:54:27;;;;;;;19.45;3.47;;;6.20;99.90;;;;;;15125083;23;20037;-37
2023/01/31 19:00:29;;;;;;;18.48;2.83;;;6.10;99.90;;;;;;15126077;23;20032;-37
2023/01/31 19:06:36;;;;;;;9.93;1.98;;;6.20;99.90;;;;;;15185275;23;20032;-37
2023/01/31 19:12:38;;;;;;;18.70;2.85;;;6.20;99.90;;;;;;15204031;23;20026;-37
2023/01/31 19:18:40;;;;;;;13.20;2.53;;;6.10;99.90;;;;;;15200978;23;20126;-37
2023/01/31 19:24:42;;;;;;;16.98;3.00;;;6.10;99.90;;;;;;15200613;23;20594;-36
2023/01/31 19:30:44;;;;;;;14.20;2.30;;;6.10;99.90;;;;;;15200686;23;20096;-37
2023/01/31 19:36:47;;;;;;;13.95;3.00;;;6.00;99.90;;;;;;15203218;23;20039;-37
2023/01/31 19:42:50;;;;;;;16.23;2.53;;;6.00;99.90;;;;;;15175341;23;20022;-37
2023/01/31 19:48:53;;;;;;;16.17;2.75;;;5.90;99.90;;;;;;15202878;23;20375;-36
2023/01/31 19:54:55;;;;;;;27.33;2.85;;;5.90;99.90;;;;;;15200248;23;20112;-36
2023/01/31 20:00:58;;;;;;;19.00;2.97;;;5.80;99.90;;;;;;15199726;23;20708;-36
2023/01/31 20:07:00;;;;;;;13.90;2.60;;;5.70;99.90;;;;;;15199291;23;20022;-36
2023/01/31 20:13:02;;;;;;;13.23;2.92;;;5.70;99.90;;;;;;15201622;23;20092;-36
2023/01/31 20:19:05;;;;;;;21.17;3.05;;;5.60;99.90;;;;;;15202750;23;20108;-37
2023/01/31 20:25:08;;;;;;;28.52;2.78;;;5.60;99.90;;;;;;15197111;23;20062;-37
2023/01/31 20:31:12;;;;;;;16.73;2.95;;;5.50;99.90;;;;;;15201926;23;20358;-36
2023/01/31 20:37:14;;;;;;;12.82;2.28;;;5.40;99.90;;;;;;15176837;23;20021;-37
2023/01/31 20:43:17;;;;;;;16.67;2.22;;;5.40;99.90;;;;;;15200371;23;20026;-36
2023/01/31 20:49:20;;;;;;;11.20;2.83;;;5.30;99.90;;;;;;15201321;23;20506;-35
2023/01/31 20:55:22;;;;;;;16.48;2.13;;;5.20;99.90;;;;;;15197818;23;20030;-36
2023/01/31 21:01:24;;;;;;;22.45;2.78;;;5.20;99.90;;;;;;15199899;23;20044;-36
2023/01/31 21:07:26;;;;;;;18.33;2.28;;;5.20;99.90;;;;;;15199971;23;20022;-37
2023/01/31 21:13:28;;;;;;;19.98;3.40;;;5.20;99.90;;;;;;15200957;23;20474;-35
2023/01/31 21:19:31;;;;;;;16.90;2.55;;;5.00;99.90;;;;;;15202157;23;20351;-36
2023/01/31 21:25:33;;;;;;;15.52;2.72;;;5.10;99.90;;;;;;15197784;23;20026;-36
2023/01/31 21:31:35;;;;;;;19.33;2.85;;;5.10;99.90;;;;;;15173328;23;20022;-36
2023/01/31 21:37:37;;;;;;;17.50;3.55;;;5.00;99.90;;;;;;15201993;23;20017;-36
2023/01/31 21:43:39;;;;;;;21.95;2.75;;;5.00;99.90;;;;;;15200792;23;20077;-36
2023/01/31 21:49:42;;;;;;;15.38;2.78;;;4.90;99.90;;;;;;15197132;23;20077;-36
2023/01/31 21:55:44;;;;;;;20.63;2.75;;;4.90;99.90;;;;;;15199618;23;20030;-36
2023/01/31 22:01:46;;;;;;;20.13;3.60;;;4.80;99.90;;;;;;15200587;23;20463;-36
2023/01/31 22:07:48;;;;;;;21.23;2.72;;;4.90;99.90;;;;;;15201390;23;20029;-36
2023/01/31 22:13:52;;;;;;;17.73;2.72;;;4.80;99.90;;;;;;15198842;23;20112;-37
2023/01/31 22:19:57;;;;;;;17.73;2.63;;;4.80;99.90;;;;;;15176531;23;20128;-37
2023/01/31 22:26:08;;;;;;;16.55;2.70;;;4.70;99.90;;;;;;15198262;23;20030;-35
2023/01/31 22:32:09;;;;;;;13.98;2.83;;;4.70;99.90;;;;;;15198544;23;20034;-36
2023/01/31 22:38:11;;;;;;;16.77;2.28;;;4.60;99.90;;;;;;15201103;23;20026;-36
2023/01/31 22:44:14;;;;;;;16.83;2.78;;;4.50;99.90;;;;;;15200844;23;20036;-36
2023/01/31 22:50:16;;;;;;;17.83;2.50;;;4.50;99.90;;;;;;15178734;23;20057;-37
2023/01/31 22:56:23;;;;;;;22.00;3.63;;;4.50;99.90;;;;;;15205814;23;20108;-37
2023/01/31 23:02:26;;;;;;;19.27;3.53;;;4.50;99.90;;;;;;15181036;23;20468;-36
2023/01/31 23:08:28;;;;;;;20.05;3.90;;;4.40;99.90;;;;;;15204074;23;20100;-37
2023/01/31 23:14:30;;;;;;;19.45;3.00;;;4.30;99.90;;;;;;15205504;23;20073;-36
2023/01/31 23:20:33;;;;;;;17.65;2.85;;;4.30;99.90;;;;;;15205058;23;20077;-36
2023/01/31 23:26:35;;;;;;;19.55;3.03;;;4.40;99.90;;;;;;15205306;23;20093;-37
2023/01/31 23:32:37;;;;;;;24.88;3.22;;;4.30;99.90;;;;;;15203619;23;20030;-37
2023/01/31 23:38:39;;;;;;;17.45;2.65;;;4.40;99.90;;;;;;15180105;23;20030;-37
2023/01/31 23:44:42;;;;;;;16.83;2.88;;;4.40;99.90;;;;;;15206346;23;20425;-36
2023/01/31 23:50:45;;;;;;;14.52;3.13;;;4.30;99.90;;;;;;15199584;23;20355;-37
2023/01/31 23:56:47;;;;;;;19.42;3.47;;;4.40;99.90;;;;;;15205309;23;20046;-37
